sensor_id;sensor_type;location;lat;lon;timestamp;P1;durP1;ratioP1;P2;durP2;ratioP2
77955;SDS011;67152;36.266;32.294;2023-05-20T00:02:00;20.58;;;8.02;;
77955;SDS011;67152;36.266;32.294;2023-05-20T00:04:27;28.10;;;8.13;;
77955;SDS011;67152;36.266;32.294;2023-05-20T00:06:53;27.58;;;9.60;;
77955;SDS011;67152;36.266;32.294;2023-05-20T00:09:20;33.28;;;8.65;;
77955;SDS011;67152;36.266;32.294;2023-05-20T00:11:46;27.02;;;8.95;;
77955;SDS011;67152;36.266;32.294;2023-05-20T00:14:13;19.25;;;8.15;;
77955;SDS011;67152;36.266;32.294;2023-05-20T00:16:40;28.48;;;8.98;;
77955;SDS011;67152;36.266;32.294;2023-05-20T00:19:06;16.23;;;7.85;;
77955;SDS011;67152;36.266;32.294;2023-05-20T00:21:33;23.77;;;8.05;;
77955;SDS011;67152;36.266;32.294;2023-05-20T00:23:59;23.50;;;8.23;;
77955;SDS011;67152;36.266;32.294;2023-05-20T00:26:27;26.08;;;8.25;;
77955;SDS011;67152;36.266;32.294;2023-05-20T00:28:54;20.83;;;8.48;;
77955;SDS011;67152;36.266;32.294;2023-05-20T00:31:40;19.80;;;8.97;;
77955;SDS011;67152;36.266;32.294;2023-05-20T00:34:07;21.52;;;8.52;;
77955;SDS011;67152;36.266;32.294;2023-05-20T00:41:28;24.83;;;8.40;;
77955;SDS011;67152;36.266;32.294;2023-05-20T00:43:55;19.90;;;9.23;;
77955;SDS011;67152;36.266;32.294;2023-05-20T00:46:25;21.23;;;8.40;;
77955;SDS011;67152;36.266;32.294;2023-05-20T00:48:52;30.85;;;8.35;;
77955;SDS011;67152;36.266;32.294;2023-05-20T00:51:18;18.70;;;7.47;;
77955;SDS011;67152;36.266;32.294;2023-05-20T00:53:45;26.10;;;8.10;;
77955;SDS011;67152;36.266;32.294;2023-05-20T00:56:11;29.63;;;7.80;;
77955;SDS011;67152;36.266;32.294;2023-05-20T00:58:38;22.43;;;6.80;;
77955;SDS011;67152;36.266;32.294;2023-05-20T01:01:05;17.85;;;6.82;;
77955;SDS011;67152;36.266;32.294;2023-05-20T01:03:32;18.40;;;8.80;;
77955;SDS011;67152;36.266;32.294;2023-05-20T01:05:58;22.07;;;7.07;;
77955;SDS011;67152;36.266;32.294;2023-05-20T01:08:25;25.05;;;7.18;;
77955;SDS011;67152;36.266;32.294;2023-05-20T01:10:57;18.00;;;7.70;;
77955;SDS011;67152;36.266;32.294;2023-05-20T01:13:26;27.52;;;8.02;;
77955;SDS011;67152;36.266;32.294;2023-05-20T01:15:56;17.17;;;7.63;;
77955;SDS011;67152;36.266;32.294;2023-05-20T01:20:50;22.67;;;8.63;;
77955;SDS011;67152;36.266;32.294;2023-05-20T01:23:20;19.98;;;8.25;;
77955;SDS011;67152;36.266;32.294;2023-05-20T01:25:46;20.15;;;8.40;;
77955;SDS011;67152;36.266;32.294;2023-05-20T01:28:13;18.40;;;7.78;;
77955;SDS011;67152;36.266;32.294;2023-05-20T01:30:44;15.20;;;7.35;;
77955;SDS011;67152;36.266;32.294;2023-05-20T01:33:13;23.00;;;7.38;;
77955;SDS011;67152;36.266;32.294;2023-05-20T01:35:41;23.17;;;7.15;;
77955;SDS011;67152;36.266;32.294;2023-05-20T01:38:08;17.02;;;7.70;;
77955;SDS011;67152;36.266;32.294;2023-05-20T01:40:35;24.15;;;8.27;;
77955;SDS011;67152;36.266;32.294;2023-05-20T01:43:02;26.27;;;8.33;;
77955;SDS011;67152;36.266;32.294;2023-05-20T01:45:28;17.83;;;7.82;;
77955;SDS011;67152;36.266;32.294;2023-05-20T01:47:55;21.10;;;8.13;;
77955;SDS011;67152;36.266;32.294;2023-05-20T01:50:21;21.85;;;9.15;;
77955;SDS011;67152;36.266;32.294;2023-05-20T01:52:48;20.23;;;9.07;;
77955;SDS011;67152;36.266;32.294;2023-05-20T01:55:14;20.02;;;7.95;;
77955;SDS011;67152;36.266;32.294;2023-05-20T01:57:41;26.63;;;8.55;;
77955;SDS011;67152;36.266;32.294;2023-05-20T02:00:07;21.60;;;7.82;;
77955;SDS011;67152;36.266;32.294;2023-05-20T02:02:36;24.42;;;7.15;;
77955;SDS011;67152;36.266;32.294;2023-05-20T02:05:02;27.63;;;8.98;;
77955;SDS011;67152;36.266;32.294;2023-05-20T02:07:29;28.40;;;8.30;;
77955;SDS011;67152;36.266;32.294;2023-05-20T02:09:58;26.27;;;8.25;;
77955;SDS011;67152;36.266;32.294;2023-05-20T02:12:25;19.58;;;8.27;;
77955;SDS011;67152;36.266;32.294;2023-05-20T02:14:52;29.30;;;9.18;;
77955;SDS011;67152;36.266;32.294;2023-05-20T02:17:19;17.70;;;7.45;;
77955;SDS011;67152;36.266;32.294;2023-05-20T02:19:46;19.65;;;8.63;;
77955;SDS011;67152;36.266;32.294;2023-05-20T02:22:13;27.48;;;9.13;;
77955;SDS011;67152;36.266;32.294;2023-05-20T02:24:39;28.33;;;9.10;;
77955;SDS011;67152;36.266;32.294;2023-05-20T02:27:07;27.08;;;8.73;;
77955;SDS011;67152;36.266;32.294;2023-05-20T02:29:34;21.92;;;8.48;;
77955;SDS011;67152;36.266;32.294;2023-05-20T02:32:00;17.40;;;8.05;;
77955;SDS011;67152;36.266;32.294;2023-05-20T02:34:27;24.55;;;7.82;;
77955;SDS011;67152;36.266;32.294;2023-05-20T02:36:55;27.85;;;8.25;;
77955;SDS011;67152;36.266;32.294;2023-05-20T02:39:22;20.73;;;8.20;;
77955;SDS011;67152;36.266;32.294;2023-05-20T02:41:48;23.05;;;9.00;;
77955;SDS011;67152;36.266;32.294;2023-05-20T02:44:15;30.77;;;8.57;;
77955;SDS011;67152;36.266;32.294;2023-05-20T02:46:42;21.65;;;8.52;;
77955;SDS011;67152;36.266;32.294;2023-05-20T02:49:09;25.20;;;8.30;;
77955;SDS011;67152;36.266;32.294;2023-05-20T02:51:35;20.40;;;8.40;;
77955;SDS011;67152;36.266;32.294;2023-05-20T02:54:02;29.20;;;8.48;;
77955;SDS011;67152;36.266;32.294;2023-05-20T02:56:29;20.00;;;7.20;;
77955;SDS011;67152;36.266;32.294;2023-05-20T02:58:57;22.20;;;7.07;;
77955;SDS011;67152;36.266;32.294;2023-05-20T03:01:42;18.15;;;7.13;;
77955;SDS011;67152;36.266;32.294;2023-05-20T03:04:08;26.05;;;7.32;;
77955;SDS011;67152;36.266;32.294;2023-05-20T03:06:35;24.30;;;8.32;;
77955;SDS011;67152;36.266;32.294;2023-05-20T03:09:02;18.23;;;7.47;;
77955;SDS011;67152;36.266;32.294;2023-05-20T03:13:56;18.65;;;8.48;;
77955;SDS011;67152;36.266;32.294;2023-05-20T03:16:23;13.32;;;6.78;;
77955;SDS011;67152;36.266;32.294;2023-05-20T03:18:49;17.77;;;7.63;;
77955;SDS011;67152;36.266;32.294;2023-05-20T03:21:16;19.33;;;7.45;;
77955;SDS011;67152;36.266;32.294;2023-05-20T03:23:43;17.50;;;7.07;;
77955;SDS011;67152;36.266;32.294;2023-05-20T03:26:10;21.45;;;7.00;;
77955;SDS011;67152;36.266;32.294;2023-05-20T03:28:36;24.60;;;6.90;;
77955;SDS011;67152;36.266;32.294;2023-05-20T03:31:03;22.88;;;7.47;;
77955;SDS011;67152;36.266;32.294;2023-05-20T03:33:30;31.17;;;8.43;;
77955;SDS011;67152;36.266;32.294;2023-05-20T03:35:58;26.67;;;8.95;;
77955;SDS011;67152;36.266;32.294;2023-05-20T03:38:25;26.88;;;9.40;;
77955;SDS011;67152;36.266;32.294;2023-05-20T03:40:52;22.27;;;8.90;;
77955;SDS011;67152;36.266;32.294;2023-05-20T03:43:18;24.30;;;7.65;;
77955;SDS011;67152;36.266;32.294;2023-05-20T03:45:45;17.00;;;6.68;;
77955;SDS011;67152;36.266;32.294;2023-05-20T03:48:11;19.95;;;6.93;;
77955;SDS011;67152;36.266;32.294;2023-05-20T03:50:38;16.67;;;7.15;;
77955;SDS011;67152;36.266;32.294;2023-05-20T03:53:05;21.52;;;7.22;;
77955;SDS011;67152;36.266;32.294;2023-05-20T03:55:31;23.45;;;6.60;;
77955;SDS011;67152;36.266;32.294;2023-05-20T03:57:58;20.33;;;6.05;;
77955;SDS011;67152;36.266;32.294;2023-05-20T04:00:26;17.27;;;6.45;;
77955;SDS011;67152;36.266;32.294;2023-05-20T04:02:55;29.35;;;7.32;;
77955;SDS011;67152;36.266;32.294;2023-05-20T04:05:22;14.23;;;6.47;;
77955;SDS011;67152;36.266;32.294;2023-05-20T04:07:49;24.95;;;6.85;;
77955;SDS011;67152;36.266;32.294;2023-05-20T04:10:17;22.73;;;6.32;;
77955;SDS011;67152;36.266;32.294;2023-05-20T04:12:45;19.77;;;7.47;;
77955;SDS011;67152;36.266;32.294;2023-05-20T04:15:12;18.17;;;6.53;;
77955;SDS011;67152;36.266;32.294;2023-05-20T04:17:40;18.23;;;6.30;;
77955;SDS011;67152;36.266;32.294;2023-05-20T04:20:07;15.55;;;6.20;;
77955;SDS011;67152;36.266;32.294;2023-05-20T04:22:36;22.73;;;7.10;;
77955;SDS011;67152;36.266;32.294;2023-05-20T04:25:04;21.30;;;7.03;;
77955;SDS011;67152;36.266;32.294;2023-05-20T04:30:03;19.80;;;6.60;;
77955;SDS011;67152;36.266;32.294;2023-05-20T04:32:31;19.45;;;6.47;;
77955;SDS011;67152;36.266;32.294;2023-05-20T04:35:01;23.30;;;7.38;;
77955;SDS011;67152;36.266;32.294;2023-05-20T04:37:28;21.17;;;7.22;;
77955;SDS011;67152;36.266;32.294;2023-05-20T04:40:13;17.40;;;6.03;;
77955;SDS011;67152;36.266;32.294;2023-05-20T04:42:39;20.10;;;6.28;;
77955;SDS011;67152;36.266;32.294;2023-05-20T04:45:06;25.80;;;5.55;;
77955;SDS011;67152;36.266;32.294;2023-05-20T04:47:33;17.10;;;5.75;;
77955;SDS011;67152;36.266;32.294;2023-05-20T04:50:09;20.30;;;5.75;;
77955;SDS011;67152;36.266;32.294;2023-05-20T04:52:36;17.70;;;5.30;;
77955;SDS011;67152;36.266;32.294;2023-05-20T04:55:11;21.85;;;5.55;;
77955;SDS011;67152;36.266;32.294;2023-05-20T04:57:38;28.80;;;5.85;;
77955;SDS011;67152;36.266;32.294;2023-05-20T05:00:09;15.15;;;5.50;;
77955;SDS011;67152;36.266;32.294;2023-05-20T05:02:37;32.90;;;6.45;;
77955;SDS011;67152;36.266;32.294;2023-05-20T05:05:04;19.13;;;5.78;;
77955;SDS011;67152;36.266;32.294;2023-05-20T05:07:31;21.52;;;6.25;;
77955;SDS011;67152;36.266;32.294;2023-05-20T05:12:24;21.52;;;6.03;;
77955;SDS011;67152;36.266;32.294;2023-05-20T05:14:51;15.65;;;5.50;;
77955;SDS011;67152;36.266;32.294;2023-05-20T05:17:18;18.50;;;5.57;;
77955;SDS011;67152;36.266;32.294;2023-05-20T05:19:44;20.55;;;5.30;;
77955;SDS011;67152;36.266;32.294;2023-05-20T05:22:11;24.10;;;6.00;;
77955;SDS011;67152;36.266;32.294;2023-05-20T05:24:37;21.48;;;6.18;;
77955;SDS011;67152;36.266;32.294;2023-05-20T05:27:04;18.45;;;6.18;;
77955;SDS011;67152;36.266;32.294;2023-05-20T05:29:30;21.42;;;5.95;;
77955;SDS011;67152;36.266;32.294;2023-05-20T05:31:57;21.30;;;6.82;;
77955;SDS011;67152;36.266;32.294;2023-05-20T05:34:24;20.77;;;5.60;;
77955;SDS011;67152;36.266;32.294;2023-05-20T05:36:51;16.85;;;5.80;;
77955;SDS011;67152;36.266;32.294;2023-05-20T05:39:17;18.52;;;6.07;;
77955;SDS011;67152;36.266;32.294;2023-05-20T05:41:44;16.52;;;5.30;;
77955;SDS011;67152;36.266;32.294;2023-05-20T05:44:10;21.27;;;5.53;;
77955;SDS011;67152;36.266;32.294;2023-05-20T05:46:37;15.57;;;6.30;;
77955;SDS011;67152;36.266;32.294;2023-05-20T05:49:03;17.73;;;6.97;;
77955;SDS011;67152;36.266;32.294;2023-05-20T05:51:30;21.50;;;6.65;;
77955;SDS011;67152;36.266;32.294;2023-05-20T05:53:57;15.27;;;6.20;;
77955;SDS011;67152;36.266;32.294;2023-05-20T05:56:24;16.58;;;6.35;;
77955;SDS011;67152;36.266;32.294;2023-05-20T05:58:50;18.75;;;7.18;;
77955;SDS011;67152;36.266;32.294;2023-05-20T06:01:17;22.63;;;6.32;;
77955;SDS011;67152;36.266;32.294;2023-05-20T06:03:44;24.50;;;6.07;;
77955;SDS011;67152;36.266;32.294;2023-05-20T06:06:10;14.95;;;6.18;;
77955;SDS011;67152;36.266;32.294;2023-05-20T06:11:04;15.55;;;6.35;;
77955;SDS011;67152;36.266;32.294;2023-05-20T06:13:31;15.68;;;6.13;;
77955;SDS011;67152;36.266;32.294;2023-05-20T06:18:24;15.23;;;5.68;;
77955;SDS011;67152;36.266;32.294;2023-05-20T06:20:57;18.13;;;5.80;;
77955;SDS011;67152;36.266;32.294;2023-05-20T06:23:24;16.42;;;6.07;;
77955;SDS011;67152;36.266;32.294;2023-05-20T06:25:51;18.33;;;7.05;;
77955;SDS011;67152;36.266;32.294;2023-05-20T06:28:19;20.88;;;6.25;;
77955;SDS011;67152;36.266;32.294;2023-05-20T06:30:47;18.42;;;6.93;;
77955;SDS011;67152;36.266;32.294;2023-05-20T06:33:13;17.75;;;7.15;;
77955;SDS011;67152;36.266;32.294;2023-05-20T06:35:41;15.85;;;6.07;;
77955;SDS011;67152;36.266;32.294;2023-05-20T06:38:07;18.90;;;7.22;;
77955;SDS011;67152;36.266;32.294;2023-05-20T06:40:34;20.20;;;6.22;;
77955;SDS011;67152;36.266;32.294;2023-05-20T06:45:27;17.58;;;6.55;;
77955;SDS011;67152;36.266;32.294;2023-05-20T06:47:54;19.13;;;6.13;;
77955;SDS011;67152;36.266;32.294;2023-05-20T06:55:14;25.25;;;6.65;;
77955;SDS011;67152;36.266;32.294;2023-05-20T06:57:41;13.93;;;6.00;;
77955;SDS011;67152;36.266;32.294;2023-05-20T07:00:08;15.57;;;5.75;;
77955;SDS011;67152;36.266;32.294;2023-05-20T07:02:35;16.20;;;6.35;;
77955;SDS011;67152;36.266;32.294;2023-05-20T07:05:02;24.35;;;5.93;;
77955;SDS011;67152;36.266;32.294;2023-05-20T07:07:30;18.23;;;5.82;;
77955;SDS011;67152;36.266;32.294;2023-05-20T07:17:16;22.92;;;5.88;;
77955;SDS011;67152;36.266;32.294;2023-05-20T07:19:42;17.40;;;5.75;;
77955;SDS011;67152;36.266;32.294;2023-05-20T07:22:09;15.93;;;6.30;;
77955;SDS011;67152;36.266;32.294;2023-05-20T07:24:36;16.17;;;6.18;;
77955;SDS011;67152;36.266;32.294;2023-05-20T07:31:56;21.67;;;5.82;;
77955;SDS011;67152;36.266;32.294;2023-05-20T07:36:49;18.15;;;5.10;;
77955;SDS011;67152;36.266;32.294;2023-05-20T07:39:16;30.05;;;6.20;;
77955;SDS011;67152;36.266;32.294;2023-05-20T07:41:43;17.55;;;5.50;;
77955;SDS011;67152;36.266;32.294;2023-05-20T07:44:09;25.30;;;6.50;;
77955;SDS011;67152;36.266;32.294;2023-05-20T07:46:38;19.05;;;5.97;;
77955;SDS011;67152;36.266;32.294;2023-05-20T07:49:06;19.63;;;6.38;;
77955;SDS011;67152;36.266;32.294;2023-05-20T07:51:33;20.30;;;5.72;;
77955;SDS011;67152;36.266;32.294;2023-05-20T07:53:59;15.20;;;5.82;;
77955;SDS011;67152;36.266;32.294;2023-05-20T07:58:56;14.07;;;6.30;;
77955;SDS011;67152;36.266;32.294;2023-05-20T08:01:24;16.35;;;5.88;;
77955;SDS011;67152;36.266;32.294;2023-05-20T08:03:52;14.85;;;6.03;;
77955;SDS011;67152;36.266;32.294;2023-05-20T08:06:19;23.00;;;6.18;;
77955;SDS011;67152;36.266;32.294;2023-05-20T08:08:47;19.90;;;6.10;;
77955;SDS011;67152;36.266;32.294;2023-05-20T08:11:14;22.20;;;6.18;;
77955;SDS011;67152;36.266;32.294;2023-05-20T08:13:41;16.45;;;6.20;;
77955;SDS011;67152;36.266;32.294;2023-05-20T08:18:34;18.35;;;6.75;;
77955;SDS011;67152;36.266;32.294;2023-05-20T08:21:03;17.52;;;6.97;;
77955;SDS011;67152;36.266;32.294;2023-05-20T08:23:32;17.65;;;6.32;;
77955;SDS011;67152;36.266;32.294;2023-05-20T08:26:00;19.77;;;6.18;;
77955;SDS011;67152;36.266;32.294;2023-05-20T08:28:29;15.73;;;5.60;;
77955;SDS011;67152;36.266;32.294;2023-05-20T08:30:56;16.00;;;6.18;;
77955;SDS011;67152;36.266;32.294;2023-05-20T08:36:09;15.65;;;5.55;;
77955;SDS011;67152;36.266;32.294;2023-05-20T08:38:36;18.92;;;5.72;;
77955;SDS011;67152;36.266;32.294;2023-05-20T08:41:02;21.08;;;6.07;;
77955;SDS011;67152;36.266;32.294;2023-05-20T08:43:29;21.73;;;6.28;;
77955;SDS011;67152;36.266;32.294;2023-05-20T08:45:57;14.80;;;5.43;;
77955;SDS011;67152;36.266;32.294;2023-05-20T08:48:25;18.05;;;5.20;;
77955;SDS011;67152;36.266;32.294;2023-05-20T08:50:56;16.25;;;5.20;;
77955;SDS011;67152;36.266;32.294;2023-05-20T08:53:43;19.15;;;5.60;;
77955;SDS011;67152;36.266;32.294;2023-05-20T08:56:10;21.80;;;6.10;;
77955;SDS011;67152;36.266;32.294;2023-05-20T08:58:38;16.13;;;5.68;;
77955;SDS011;67152;36.266;32.294;2023-05-20T09:01:05;27.38;;;6.55;;
77955;SDS011;67152;36.266;32.294;2023-05-20T09:03:33;18.92;;;6.40;;
77955;SDS011;67152;36.266;32.294;2023-05-20T09:06:03;13.23;;;5.85;;
77955;SDS011;67152;36.266;32.294;2023-05-20T09:08:31;15.48;;;5.57;;
77955;SDS011;67152;36.266;32.294;2023-05-20T09:10:59;16.00;;;5.70;;
77955;SDS011;67152;36.266;32.294;2023-05-20T09:13:26;18.05;;;5.88;;
77955;SDS011;67152;36.266;32.294;2023-05-20T09:15:58;12.77;;;5.35;;
77955;SDS011;67152;36.266;32.294;2023-05-20T09:18:26;16.80;;;5.75;;
77955;SDS011;67152;36.266;32.294;2023-05-20T09:20:54;13.95;;;5.65;;
77955;SDS011;67152;36.266;32.294;2023-05-20T09:23:20;25.20;;;6.45;;
77955;SDS011;67152;36.266;32.294;2023-05-20T09:28:21;15.95;;;6.38;;
77955;SDS011;67152;36.266;32.294;2023-05-20T09:30:59;21.23;;;6.30;;
77955;SDS011;67152;36.266;32.294;2023-05-20T09:33:27;16.52;;;6.07;;
77955;SDS011;67152;36.266;32.294;2023-05-20T09:36:03;15.40;;;5.55;;
77955;SDS011;67152;36.266;32.294;2023-05-20T09:38:33;17.73;;;5.43;;
77955;SDS011;67152;36.266;32.294;2023-05-20T09:41:09;16.33;;;5.63;;
77955;SDS011;67152;36.266;32.294;2023-05-20T09:43:40;15.73;;;5.18;;
77955;SDS011;67152;36.266;32.294;2023-05-20T09:46:07;14.25;;;5.25;;
77955;SDS011;67152;36.266;32.294;2023-05-20T09:48:35;16.50;;;4.75;;
77955;SDS011;67152;36.266;32.294;2023-05-20T09:51:07;13.40;;;4.43;;
77955;SDS011;67152;36.266;32.294;2023-05-20T09:53:35;13.20;;;4.18;;
77955;SDS011;67152;36.266;32.294;2023-05-20T09:56:04;14.45;;;4.63;;
77955;SDS011;67152;36.266;32.294;2023-05-20T09:58:32;19.45;;;5.15;;
77955;SDS011;67152;36.266;32.294;2023-05-20T10:01:01;15.57;;;4.70;;
77955;SDS011;67152;36.266;32.294;2023-05-20T10:06:05;17.02;;;4.80;;
77955;SDS011;67152;36.266;32.294;2023-05-20T10:08:52;21.45;;;5.28;;
77955;SDS011;67152;36.266;32.294;2023-05-20T10:11:42;23.45;;;5.05;;
77955;SDS011;67152;36.266;32.294;2023-05-20T10:14:21;13.68;;;4.85;;
77955;SDS011;67152;36.266;32.294;2023-05-20T10:19:57;14.77;;;5.18;;
77955;SDS011;67152;36.266;32.294;2023-05-20T10:22:26;12.63;;;3.97;;
77955;SDS011;67152;36.266;32.294;2023-05-20T10:25:03;13.43;;;4.45;;
77955;SDS011;67152;36.266;32.294;2023-05-20T10:27:41;13.70;;;4.30;;
77955;SDS011;67152;36.266;32.294;2023-05-20T10:30:19;16.05;;;4.47;;
77955;SDS011;67152;36.266;32.294;2023-05-20T10:32:48;13.63;;;3.97;;
77955;SDS011;67152;36.266;32.294;2023-05-20T10:35:20;14.27;;;4.57;;
77955;SDS011;67152;36.266;32.294;2023-05-20T10:37:52;14.05;;;4.25;;
77955;SDS011;67152;36.266;32.294;2023-05-20T10:40:32;28.52;;;5.22;;
77955;SDS011;67152;36.266;32.294;2023-05-20T10:43:07;20.08;;;4.18;;
77955;SDS011;67152;36.266;32.294;2023-05-20T10:45:48;12.68;;;4.10;;
77955;SDS011;67152;36.266;32.294;2023-05-20T10:48:22;14.23;;;5.70;;
77955;SDS011;67152;36.266;32.294;2023-05-20T10:51:01;16.70;;;5.60;;
77955;SDS011;67152;36.266;32.294;2023-05-20T10:53:38;21.10;;;7.45;;
77955;SDS011;67152;36.266;32.294;2023-05-20T10:56:27;19.67;;;5.72;;
77955;SDS011;67152;36.266;32.294;2023-05-20T10:59:18;16.23;;;6.10;;
77955;SDS011;67152;36.266;32.294;2023-05-20T11:01:46;81.75;;;6.78;;
77955;SDS011;67152;36.266;32.294;2023-05-20T11:04:14;12.80;;;5.38;;
77955;SDS011;67152;36.266;32.294;2023-05-20T11:06:50;10.25;;;4.47;;
77955;SDS011;67152;36.266;32.294;2023-05-20T11:09:21;13.95;;;5.07;;
77955;SDS011;67152;36.266;32.294;2023-05-20T11:11:48;19.40;;;4.40;;
77955;SDS011;67152;36.266;32.294;2023-05-20T11:14:16;25.55;;;4.80;;
77955;SDS011;67152;36.266;32.294;2023-05-20T11:16:44;9.65;;;4.80;;
77955;SDS011;67152;36.266;32.294;2023-05-20T11:21:42;108.28;;;8.57;;
77955;SDS011;67152;36.266;32.294;2023-05-20T11:24:09;47.50;;;6.45;;
77955;SDS011;67152;36.266;32.294;2023-05-20T11:26:37;71.80;;;6.00;;
77955;SDS011;67152;36.266;32.294;2023-05-20T11:29:04;12.23;;;4.32;;
77955;SDS011;67152;36.266;32.294;2023-05-20T11:31:31;17.27;;;5.45;;
77955;SDS011;67152;36.266;32.294;2023-05-20T11:33:58;18.42;;;7.13;;
77955;SDS011;67152;36.266;32.294;2023-05-20T11:36:27;30.23;;;6.68;;
77955;SDS011;67152;36.266;32.294;2023-05-20T11:38:58;19.63;;;6.57;;
77955;SDS011;67152;36.266;32.294;2023-05-20T11:41:26;36.58;;;8.07;;
77955;SDS011;67152;36.266;32.294;2023-05-20T11:43:59;16.05;;;5.82;;
77955;SDS011;67152;36.266;32.294;2023-05-20T11:46:26;21.35;;;5.57;;
77955;SDS011;67152;36.266;32.294;2023-05-20T11:48:53;17.67;;;5.97;;
77955;SDS011;67152;36.266;32.294;2023-05-20T11:51:25;18.15;;;6.88;;
77955;SDS011;67152;36.266;32.294;2023-05-20T11:53:52;13.18;;;6.00;;
77955;SDS011;67152;36.266;32.294;2023-05-20T11:56:26;10.68;;;4.95;;
77955;SDS011;67152;36.266;32.294;2023-05-20T11:58:55;16.38;;;4.50;;
77955;SDS011;67152;36.266;32.294;2023-05-20T12:01:23;9.38;;;3.58;;
77955;SDS011;67152;36.266;32.294;2023-05-20T12:03:50;10.30;;;3.80;;
77955;SDS011;67152;36.266;32.294;2023-05-20T12:06:17;9.35;;;3.33;;
77955;SDS011;67152;36.266;32.294;2023-05-20T12:11:12;7.85;;;3.80;;
77955;SDS011;67152;36.266;32.294;2023-05-20T12:13:39;5.00;;;2.58;;
77955;SDS011;67152;36.266;32.294;2023-05-20T12:18:33;8.43;;;3.22;;
77955;SDS011;67152;36.266;32.294;2023-05-20T12:21:00;11.95;;;3.17;;
77955;SDS011;67152;36.266;32.294;2023-05-20T12:23:27;7.43;;;2.80;;
77955;SDS011;67152;36.266;32.294;2023-05-20T12:25:59;11.70;;;3.15;;
77955;SDS011;67152;36.266;32.294;2023-05-20T12:28:26;5.13;;;2.40;;
77955;SDS011;67152;36.266;32.294;2023-05-20T12:30:53;4.32;;;2.30;;
77955;SDS011;67152;36.266;32.294;2023-05-20T12:33:20;6.00;;;2.20;;
77955;SDS011;67152;36.266;32.294;2023-05-20T12:35:47;5.70;;;2.28;;
77955;SDS011;67152;36.266;32.294;2023-05-20T12:38:14;8.80;;;2.42;;
77955;SDS011;67152;36.266;32.294;2023-05-20T12:40:41;5.68;;;2.13;;
77955;SDS011;67152;36.266;32.294;2023-05-20T12:43:07;3.70;;;1.77;;
77955;SDS011;67152;36.266;32.294;2023-05-20T12:45:34;7.00;;;2.17;;
77955;SDS011;67152;36.266;32.294;2023-05-20T12:48:01;4.35;;;1.98;;
77955;SDS011;67152;36.266;32.294;2023-05-20T12:50:30;6.25;;;1.98;;
77955;SDS011;67152;36.266;32.294;2023-05-20T12:52:57;4.45;;;2.10;;
77955;SDS011;67152;36.266;32.294;2023-05-20T12:55:24;6.05;;;2.03;;
77955;SDS011;67152;36.266;32.294;2023-05-20T12:57:50;6.95;;;2.15;;
77955;SDS011;67152;36.266;32.294;2023-05-20T13:00:17;6.28;;;1.95;;
77955;SDS011;67152;36.266;32.294;2023-05-20T13:02:44;5.45;;;2.17;;
77955;SDS011;67152;36.266;32.294;2023-05-20T13:05:11;7.90;;;2.55;;
77955;SDS011;67152;36.266;32.294;2023-05-20T13:07:38;5.95;;;1.98;;
77955;SDS011;67152;36.266;32.294;2023-05-20T13:10:24;4.70;;;2.10;;
77955;SDS011;67152;36.266;32.294;2023-05-20T13:12:52;5.95;;;1.83;;
77955;SDS011;67152;36.266;32.294;2023-05-20T13:15:18;7.35;;;2.30;;
77955;SDS011;67152;36.266;32.294;2023-05-20T13:17:45;6.73;;;2.20;;
77955;SDS011;67152;36.266;32.294;2023-05-20T13:20:11;12.70;;;2.60;;
77955;SDS011;67152;36.266;32.294;2023-05-20T13:22:38;3.38;;;1.67;;
77955;SDS011;67152;36.266;32.294;2023-05-20T13:25:05;13.90;;;2.40;;
77955;SDS011;67152;36.266;32.294;2023-05-20T13:27:32;7.53;;;1.70;;
77955;SDS011;67152;36.266;32.294;2023-05-20T13:32:44;6.55;;;1.98;;
77955;SDS011;67152;36.266;32.294;2023-05-20T13:35:11;7.05;;;1.90;;
77955;SDS011;67152;36.266;32.294;2023-05-20T13:37:38;5.43;;;2.47;;
77955;SDS011;67152;36.266;32.294;2023-05-20T13:40:04;6.72;;;3.30;;
77955;SDS011;67152;36.266;32.294;2023-05-20T13:42:32;10.98;;;4.40;;
77955;SDS011;67152;36.266;32.294;2023-05-20T13:44:59;11.02;;;5.10;;
77955;SDS011;67152;36.266;32.294;2023-05-20T13:47:45;15.60;;;4.40;;
77955;SDS011;67152;36.266;32.294;2023-05-20T13:50:15;13.00;;;5.18;;
77955;SDS011;67152;36.266;32.294;2023-05-20T13:52:42;14.90;;;5.25;;
77955;SDS011;67152;36.266;32.294;2023-05-20T13:55:08;9.02;;;5.20;;
77955;SDS011;67152;36.266;32.294;2023-05-20T13:57:35;11.15;;;5.55;;
77955;SDS011;67152;36.266;32.294;2023-05-20T14:00:02;12.88;;;4.97;;
77955;SDS011;67152;36.266;32.294;2023-05-20T14:02:32;8.23;;;3.75;;
77955;SDS011;67152;36.266;32.294;2023-05-20T14:04:58;13.00;;;3.45;;
77955;SDS011;67152;36.266;32.294;2023-05-20T14:07:25;10.07;;;4.07;;
77955;SDS011;67152;36.266;32.294;2023-05-20T14:09:52;5.25;;;2.60;;
77955;SDS011;67152;36.266;32.294;2023-05-20T14:12:18;4.25;;;1.88;;
77955;SDS011;67152;36.266;32.294;2023-05-20T14:14:47;11.50;;;2.50;;
77955;SDS011;67152;36.266;32.294;2023-05-20T14:17:14;7.90;;;2.47;;
77955;SDS011;67152;36.266;32.294;2023-05-20T14:19:41;3.38;;;1.85;;
77955;SDS011;67152;36.266;32.294;2023-05-20T14:24:34;5.65;;;1.65;;
77955;SDS011;67152;36.266;32.294;2023-05-20T14:27:01;3.38;;;1.58;;
77955;SDS011;67152;36.266;32.294;2023-05-20T14:29:28;8.35;;;1.92;;
77955;SDS011;67152;36.266;32.294;2023-05-20T14:31:55;3.92;;;2.20;;
77955;SDS011;67152;36.266;32.294;2023-05-20T14:34:21;3.20;;;2.08;;
77955;SDS011;67152;36.266;32.294;2023-05-20T14:37:08;4.22;;;1.95;;
77955;SDS011;67152;36.266;32.294;2023-05-20T14:39:36;3.50;;;1.92;;
77955;SDS011;67152;36.266;32.294;2023-05-20T14:42:04;8.65;;;1.90;;
77955;SDS011;67152;36.266;32.294;2023-05-20T14:46:57;8.23;;;2.50;;
77955;SDS011;67152;36.266;32.294;2023-05-20T14:49:23;3.50;;;2.10;;
77955;SDS011;67152;36.266;32.294;2023-05-20T14:51:50;12.20;;;2.60;;
77955;SDS011;67152;36.266;32.294;2023-05-20T14:54:17;10.68;;;2.03;;
77955;SDS011;67152;36.266;32.294;2023-05-20T14:56:49;9.50;;;2.28;;
77955;SDS011;67152;36.266;32.294;2023-05-20T15:01:43;5.47;;;2.30;;
77955;SDS011;67152;36.266;32.294;2023-05-20T15:04:10;8.40;;;3.28;;
77955;SDS011;67152;36.266;32.294;2023-05-20T15:06:37;4.10;;;2.92;;
77955;SDS011;67152;36.266;32.294;2023-05-20T15:09:03;11.30;;;3.20;;
77955;SDS011;67152;36.266;32.294;2023-05-20T15:11:31;11.07;;;3.60;;
77955;SDS011;67152;36.266;32.294;2023-05-20T15:13:57;9.63;;;3.95;;
77955;SDS011;67152;36.266;32.294;2023-05-20T15:16:24;7.72;;;3.20;;
77955;SDS011;67152;36.266;32.294;2023-05-20T15:18:51;10.90;;;3.60;;
77955;SDS011;67152;36.266;32.294;2023-05-20T15:24:09;9.52;;;4.25;;
77955;SDS011;67152;36.266;32.294;2023-05-20T15:26:37;12.45;;;4.28;;
77955;SDS011;67152;36.266;32.294;2023-05-20T15:29:04;11.40;;;3.92;;
77955;SDS011;67152;36.266;32.294;2023-05-20T15:31:30;8.63;;;3.47;;
77955;SDS011;67152;36.266;32.294;2023-05-20T15:33:57;10.32;;;4.75;;
77955;SDS011;67152;36.266;32.294;2023-05-20T15:36:43;14.48;;;4.13;;
77955;SDS011;67152;36.266;32.294;2023-05-20T15:39:10;14.05;;;4.30;;
77955;SDS011;67152;36.266;32.294;2023-05-20T15:46:31;10.25;;;4.47;;
77955;SDS011;67152;36.266;32.294;2023-05-20T15:48:57;18.35;;;4.75;;
77955;SDS011;67152;36.266;32.294;2023-05-20T15:51:24;18.83;;;5.60;;
77955;SDS011;67152;36.266;32.294;2023-05-20T15:53:51;21.48;;;5.18;;